Flight Track Log - Related Links

Times and Time Zones

All times are in EST time to prevent confusion due to time zone crossing. See the N888FM flight status page for this flight to view local times or setup timezone preferences in your user account.

Time Position Orientation Groundspeed Altitude Reporting Facility
EST Latitude Longitude Course Direction KTS MPH feet Rate Location/Type
Mon 01:34:59 PM 28.4333 -81.3167 360° North 146 168 700  Level Orlando TRACON
Mon 01:35:17 PM 28.4500 -81.3167 360° North 151 174 1,300 1,846 Climbing Orlando TRACON
Mon 01:36:17 PM 28.5000 -81.3167 360° North 187 215 3,100 1,700 Climbing Orlando TRACON
Mon 01:37:17 PM 28.5667 -81.3167 360° North 211 243 4,700 1,800 Climbing Orlando TRACON
Mon 01:38:17 PM 28.6167 -81.3000 16° North 210 242 6,700 1,686 Climbing Orlando TRACON
Mon 01:39:18 PM 28.6833 -81.3000 360° North 213 245 8,100 1,143 Climbing Orlando TRACON
Mon 01:40:23 PM 28.7500 -81.3167 348° North 231 266 9,100 952 Climbing Orlando TRACON
Mon 01:41:24 PM 28.8167 -81.3333 348° North 241 277 10,100 847 Climbing Orlando TRACON
Mon 01:43:06 PM 28.9233 -81.3578 349° North 263 303 11,400 593 Climbing Jacksonville Center
Mon 01:44:06 PM 28.9967 -81.3756 348° North 260 299 11,700 350 Climbing Jacksonville Center
Mon 01:45:06 PM 29.0719 -81.3886 351° North 266 306 12,100 700 Climbing Jacksonville Center
Mon 01:46:06 PM 29.1450 -81.3972 354° North 267 307 13,100 1,050 Climbing Jacksonville Center
Mon 01:47:06 PM 29.2161 -81.4008 357° North 252 290 14,200 1,050 Climbing Jacksonville Center
Mon 01:48:06 PM 29.2872 -81.4092 354° North 254 292 15,200 1,000 Climbing Jacksonville Center
Mon 01:49:06 PM 29.3581 -81.4131 357° North 254 292 16,200 950 Climbing Jacksonville Center
Mon 01:50:06 PM 29.4167 -81.4217 353° North 249 287 17,100 4,400 Climbing Jacksonville Center
Mon 01:51:06 PM 29.4836 -81.4278 355° North 244 281 25,000 850 Climbing Jacksonville Center
Mon 01:52:06 PM 29.5483 -81.4364 353° North 239 275 18,800 -3,000 Descending Jacksonville Center
Mon 01:53:06 PM 29.6194 -81.4425 356° North 244 281 19,000 100 Climbing Jacksonville Center
Mon 01:54:06 PM 29.7031 -81.4508 355° North 263 303 19,000 50 Level Jacksonville Center
Mon 01:55:06 PM 29.7803 -81.4567 356° North 270 311 19,100 600 Climbing Jacksonville Center
Mon 01:56:06 PM 29.8494 -81.4653 354° North 270 311 20,200 1,050 Climbing Jacksonville Center
Mon 01:57:06 PM 29.9183 -81.4692 357° North 262 302 21,200 1,000 Climbing Jacksonville Center
Mon 01:58:06 PM 29.9811 -81.4803 351° North 242 278 22,200 1,000 Climbing Jacksonville Center
Mon 01:59:06 PM 30.0333 -81.5011 341° North 220 253 23,200 750 Climbing Jacksonville Center
Mon 02:00:06 PM 30.0881 -81.5219 342° North 203 234 23,700 500 Climbing Jacksonville Center
Mon 02:01:06 PM 30.1506 -81.5233 359° North 203 234 24,200 500 Climbing Jacksonville Center
Mon 02:02:06 PM 30.2133 -81.5200 North 216 249 24,700 400 Climbing Jacksonville Center
Mon 02:03:06 PM 30.2778 -81.5119 North 222 255 25,000 150 Climbing Jacksonville Center
Mon 02:04:06 PM 30.3489 -81.5086 North 229 264 25,000  Level Jacksonville Center
Mon 02:05:06 PM 30.4197 -81.5050 North 240 276 25,000  Level Jacksonville Center
Mon 02:06:06 PM 30.4906 -81.4992 North 251 289 25,000  Level Jacksonville Center
Mon 02:07:06 PM 30.5636 -81.4933 North 251 289 25,000  Level Jacksonville Center
Mon 02:08:06 PM 30.6347 -81.4875 North 251 289 25,000  Level Jacksonville Center
Mon 02:09:06 PM 30.6992 -81.4817 North 245 282 25,000  Level Jacksonville Center
Mon 02:10:06 PM 30.7661 -81.4758 North 234 269 25,000  Level Jacksonville Center
Mon 02:11:06 PM 30.8328 -81.4700 North 234 269 25,000  Level Jacksonville Center
Mon 02:12:06 PM 30.9017 -81.4664 North 234 269 25,000  Level Jacksonville Center
Mon 02:13:06 PM 30.9664 -81.4631 North 234 269 25,000  Level Jacksonville Center
Mon 02:14:06 PM 31.0372 -81.4547 North 234 269 25,000  Level Jacksonville Center
Mon 02:15:06 PM 31.1019 -81.4514 North 234 269 25,000  Level Jacksonville Center
Mon 02:16:06 PM 31.1686 -81.4406 North 234 269 25,000  Level Jacksonville Center
Mon 02:17:06 PM 31.2353 -81.4397 North 234 269 25,000  Level Jacksonville Center
Mon 02:18:06 PM 31.3042 -81.4264 North 239 275 25,000  Level Jacksonville Center
Mon 02:19:06 PM 31.3728 -81.4058 14° North 244 281 25,000  Level Jacksonville Center
Mon 02:20:06 PM 31.4353 -81.3878 14° North 243 280 25,000  Level Jacksonville Center
Mon 02:21:06 PM 31.5144 -81.3694 11° North 260 299 25,000  Level Jacksonville Center
Mon 02:22:06 PM 31.5892 -81.3486 13° North 266 306 25,000  Level Jacksonville Center
Mon 02:23:06 PM 31.6600 -81.3306 12° North 271 312 25,000  Level Jacksonville Center
Mon 02:24:06 PM 31.7453 -81.3069 13° North 278 320 25,000  Level Jacksonville Center
Mon 02:25:06 PM 31.8139 -81.2911 11° North 278 320 25,000  Level Jacksonville Center
Mon 02:26:06 PM 31.8908 -81.2678 14° North 278 320 25,000  Level Jacksonville Center
Mon 02:27:06 PM 31.9681 -81.2469 13° North 278 320 25,000  Level Jacksonville Center
Mon 02:28:06 PM 32.0450 -81.2283 12° North 278 320 25,000  Level Jacksonville Center
Mon 02:29:06 PM 32.1239 -81.2072 13° North 278 320 25,000  Level Jacksonville Center
Mon 02:30:06 PM 32.1986 -81.1617 27° Northeast 278 320 25,000  Level Jacksonville Center
Mon 02:31:06 PM 32.2708 -81.1111 31° Northeast 291 335 25,000  Level Jacksonville Center
Mon 02:32:06 PM 32.3514 -81.0531 31° Northeast 306 352 25,000  Level Jacksonville Center
Mon 02:33:06 PM 32.4197 -81.0025 32° Northeast 317 365 25,000  Level Jacksonville Center
Mon 02:34:06 PM 32.5003 -80.9442 31° Northeast 317 365 25,000  Level Jacksonville Center
Mon 02:35:06 PM 32.5744 -80.8908 31° Northeast 309 356 25,000  Level Jacksonville Center
Mon 02:36:06 PM 32.6489 -80.8350 32° Northeast 314 361 25,000  Level Jacksonville Center
Mon 02:37:06 PM 32.7250 -80.7814 31° Northeast 314 361 25,000  Level Jacksonville Center
Mon 02:38:06 PM 32.7994 -80.7278 31° Northeast 314 361 25,000  Level Jacksonville Center
Mon 02:39:06 PM 32.8714 -80.6764 31° Northeast 314 361 25,000  Level Jacksonville Center
Mon 02:40:06 PM 32.9478 -80.6203 32° Northeast 314 361 25,000  Level Jacksonville Center
Mon 02:41:06 PM 33.0197 -80.5664 32° Northeast 314 361 25,000  Level Jacksonville Center
Mon 02:42:06 PM 33.0961 -80.5122 31° Northeast 314 361 25,000  Level Jacksonville Center
Mon 02:43:06 PM 33.1703 -80.4581 31° Northeast 314 361 25,000  Level Jacksonville Center
Mon 02:44:06 PM 33.2442 -80.4014 33° Northeast 314 361 25,000  Level Jacksonville Center
Mon 02:45:06 PM 33.3203 -80.3447 32° Northeast 314 361 25,000  Level Jacksonville Center
Mon 02:46:06 PM 33.3942 -80.2903 32° Northeast 314 361 25,000  Level Jacksonville Center
Mon 02:47:06 PM 33.4725 -80.2333 31° Northeast 314 361 25,000  Level Jacksonville Center
Mon 02:48:06 PM 33.5483 -80.1761 32° Northeast 314 361 25,000  Level Jacksonville Center
Mon 02:49:06 PM 33.6264 -80.1189 31° Northeast 314 361 25,000  Level Jacksonville Center
Mon 02:50:06 PM 33.7022 -80.0592 33° Northeast 314 361 25,000  Level Jacksonville Center
Mon 02:51:06 PM 33.7761 -80.0017 33° Northeast 314 361 25,000  Level Jacksonville Center
Mon 02:52:06 PM 33.8542 -79.9467 30° Northeast 314 361 25,000  Level Jacksonville Center
Mon 02:53:06 PM 33.9319 -79.8864 33° Northeast 314 361 25,000  Level Jacksonville Center
Mon 02:54:06 PM 34.0078 -79.8289 32° Northeast 314 361 25,000  Level Jacksonville Center
Mon 02:55:06 PM 34.0858 -79.7708 32° Northeast 314 361 25,000  Level Jacksonville Center
Mon 02:56:06 PM 34.1636 -79.7103 33° Northeast 314 361 25,000  Level Jacksonville Center
Mon 02:57:06 PM 34.2414 -79.6547 31° Northeast 314 361 25,000  Level Jacksonville Center
Mon 02:59:16 PM 34.4169 -79.5594 24° Northeast 319 367 25,000  Level Washington Center
Mon 03:00:16 PM 34.4994 -79.5206 21° North 319 367 25,000  Level Washington Center
Mon 03:01:16 PM 34.5800 -79.4867 19° North 319 367 25,000  Level Washington Center
Mon 03:02:15 PM 34.6622 -79.4603 15° North 309 356 25,000  Level Washington Center
Mon 03:03:16 PM 34.7483 -79.4392 11° North 304 350 25,000  Level Washington Center
Mon 03:04:16 PM 34.8328 -79.4128 14° North 304 350 25,000  Level Washington Center
Mon 03:05:17 PM 34.9189 -79.3914 12° North 304 350 25,000  Level Washington Center
Mon 03:06:15 PM 35.0011 -79.3675 13° North 304 350 25,000  Level Washington Center
Mon 03:07:16 PM 35.0875 -79.3411 14° North 304 350 25,000  Level Washington Center
Mon 03:08:17 PM 35.1736 -79.3169 13° North 304 350 25,000  Level Washington Center
Mon 03:09:15 PM 35.2494 -79.2978 12° North 304 350 25,000  Level Washington Center
Mon 03:10:16 PM 35.3464 -79.2692 14° North 309 356 25,000  Level Washington Center
Mon 03:11:16 PM 35.4242 -79.2472 13° North 314 361 25,000  Level Washington Center
Mon 03:12:17 PM 35.5106 -79.2231 13° North 319 367 25,000  Level Washington Center
Mon 03:13:16 PM 35.5947 -79.1989 13° North 319 367 25,000  Level Washington Center
Mon 03:14:16 PM 35.6811 -79.1694 15° North 319 367 25,000  Level Washington Center
Mon 03:15:16 PM 35.7672 -79.1478 12° North 319 367 25,000  Level Washington Center
Mon 03:16:15 PM 35.8556 -79.1236 13° North 319 367 25,000  Level Washington Center
Mon 03:17:16 PM 35.9419 -79.0967 14° North 319 367 25,000  Level Washington Center
Mon 03:18:16 PM 36.0306 -79.0697 14° North 319 367 25,000  Level Washington Center
Mon 03:19:16 PM 36.1147 -79.0450 13° North 319 367 25,000  Level Washington Center
Mon 03:20:17 PM 36.2031 -79.0181 14° North 319 367 25,000  Level Washington Center
Mon 03:21:15 PM 36.2914 -78.9936 13° North 319 367 25,000  Level Washington Center
Mon 03:22:15 PM 36.3797 -78.9692 13° North 319 367 25,000  Level Washington Center
Mon 03:23:17 PM 36.4681 -78.9419 14° North 319 367 25,000  Level Washington Center
Mon 03:24:17 PM 36.5564 -78.9147 14° North 319 367 25,000  Level Washington Center
Mon 03:25:15 PM 36.6469 -78.8875 14° North 319 367 25,000  Level Washington Center
Mon 03:26:15 PM 36.7458 -78.8553 15° North 319 367 25,000  Level Washington Center
Mon 03:27:16 PM 36.8364 -78.8281 14° North 319 367 25,000  Level Washington Center
Mon 03:28:17 PM 36.9183 -78.8028 14° North 324 373 25,000  Level Washington Center
Mon 03:29:18 PM 37.0108 -78.7756 13° North 324 373 25,000  Level Washington Center
Mon 03:30:16 PM 37.1014 -78.7481 14° North 329 379 25,000  Level Washington Center
Mon 03:31:16 PM 37.2044 -78.7158 14° North 340 391 25,000  Level Washington Center
Mon 03:32:17 PM 37.2947 -78.6881 14° North 340 391 25,000  Level Washington Center
Mon 03:33:15 PM 37.3894 -78.6606 13° North 335 386 25,000  Level Washington Center
Mon 03:34:15 PM 37.4819 -78.6328 13° North 335 386 25,000  Level Washington Center
Mon 03:35:16 PM 37.5639 -78.6100 12° North 335 386 25,000  Level Washington Center
Mon 03:36:16 PM 37.6564 -78.5794 15° North 335 386 25,000  Level Washington Center
Mon 03:37:17 PM 37.7489 -78.5517 13° North 335 386 25,000  Level Washington Center
Mon 03:38:15 PM 37.8433 -78.5239 13° North 335 386 25,000  Level Washington Center
Mon 03:39:15 PM 37.9483 -78.4911 14° North 341 392 25,000  Level Washington Center
Mon 03:40:17 PM 38.0367 -78.4656 13° North 336 387 25,000  Level Washington Center
Mon 03:41:17 PM 38.1314 -78.4347 14° North 336 387 25,000  Level Washington Center
Mon 03:42:15 PM 38.2258 -78.4067 13° North 336 387 25,000  Level Washington Center
Mon 03:43:16 PM 38.3203 -78.3758 14° North 336 387 25,000  Level Washington Center
Mon 03:44:17 PM 38.4169 -78.3450 14° North 336 387 25,000  Level Washington Center
Mon 03:45:17 PM 38.5136 -78.3142 14° North 341 392 25,000  Level Washington Center
Mon 03:46:15 PM 38.6100 -78.2858 13° North 341 392 25,000  Level Washington Center
Mon 03:47:15 PM 38.7089 -78.2547 14° North 347 399 25,000 -149 Level Washington Center
Mon 03:48:16 PM 38.8097 -78.2211 15° North 358 412 24,700 -645 Descending Washington Center
Mon 03:49:16 PM 38.9108 -78.1714 21° North 363 418 23,700 -893 Descending Washington Center
Mon 03:50:17 PM 39.0036 -78.1158 25° Northeast 384 442 22,900 -908 Descending Washington Center
Mon 03:51:15 PM 39.1092 -78.0500 26° Northeast 401 461 21,900 -966 Descending Washington Center
Mon 03:52:15 PM 39.2106 -77.9892 25° Northeast 406 467 21,000 -450 Descending Washington Center
Mon 03:53:15 PM 39.3117 -77.9281 25° Northeast 401 461 21,000  Level Washington Center
Mon 03:54:17 PM 39.4067 -77.8719 25° Northeast 386 444 21,000  Level Washington Center
Mon 03:55:18 PM 39.5036 -77.8106 26° Northeast 386 444 21,000 -529 Level Washington Center
Mon 03:57:07 PM 39.7000 -77.6897 25° Northeast 387 445 19,500 -888 Descending New York Center
Mon 03:58:07 PM 39.7994 -77.6292 25° Northeast 398 458 18,500 -950 Descending New York Center
Mon 03:59:07 PM 39.9011 -77.5633 26° Northeast 398 458 17,600 -850 Descending New York Center
Mon 04:00:07 PM 39.9892 -77.4825 35° Northeast 393 452 16,800 -800 Descending New York Center
Mon 04:01:07 PM 40.0706 -77.3736 46° Northeast 404 465 16,000 -650 Descending New York Center
Mon 04:02:07 PM 40.1469 -77.2722 45° Northeast 404 465 15,500 -500 Descending New York Center
Mon 04:03:07 PM 40.2256 -77.1708 45° Northeast 397 457 15,000 -250 Descending New York Center
Mon 04:04:07 PM 40.3019 -77.0689 45° Northeast 390 449 15,000  Level New York Center
Mon 04:05:07 PM 40.3761 -76.9667 46° Northeast 384 442 15,000  Level New York Center
Mon 04:06:07 PM 40.4481 -76.8639 47° Northeast 384 442 15,000 -350 Level New York Center
Mon 04:07:07 PM 40.5242 -76.7614 46° Northeast 384 442 14,300 -800 Descending New York Center
Mon 04:08:07 PM 40.5917 -76.6636 48° Northeast 391 450 13,400 -850 Descending New York Center
Mon 04:09:07 PM 40.6700 -76.5553 46° Northeast 402 463 12,600 -850 Descending New York Center
Mon 04:10:07 PM 40.7525 -76.4417 46° Northeast 395 455 11,700 -850 Descending New York Center
Mon 04:11:07 PM 40.8222 -76.3378 48° Northeast 390 449 10,900 -950 Descending New York Center
Mon 04:12:07 PM 40.8933 -76.2419 46° Northeast 368 423 9,800 -1,250 Descending New York Center
Mon 04:13:07 PM 40.9492 -76.1586 48° Northeast 351 404 8,400 -1,500 Descending New York Center
Mon 04:14:07 PM 41.0094 -76.0669 49° Northeast 314 361 6,800 -1,450 Descending New York Center
Mon 04:15:07 PM 41.0539 -76.0100 44° Northeast 259 298 5,500 -1,000 Descending New York Center
Mon 04:16:07 PM 41.1092 -75.9372 45° Northeast 247 284 4,800 -600 Descending New York Center
Mon 04:17:07 PM 41.1572 -75.8858 39° Northeast 229 264 4,300 -400 Descending New York Center
Mon 04:18:07 PM 41.2114 -75.8375 34° Northeast 224 258 4,000 -600 Descending New York Center
Mon 04:19:07 PM 41.2481 -75.8042 34° Northeast 195 224 3,100 -950 Descending New York Center
Mon 04:20:07 PM 41.2872 -75.7686 34° Northeast 168 193 2,100 -900 Descending New York Center
Mon 04:21:07 PM 41.3153 -75.7431 34° Northeast 146 168 1,300 -446 Descending New York Center
Mon 04:22:08 PM 41.3475 -75.7178 30° Northeast 141 162 1,200 3,850 Descending New York Center
Mon 04:23:07 PM 41.3800 -75.6925 30° Northeast 141 162 9,000 3,933 Climbing New York Center
Mon 04:24:07 PM 41.4122 -75.6672 30° Northeast 141 162 9,000  Level New York Center
Mon 04:25:07 PM 41.4444 -75.6419 30° Northeast 141 162 9,000  Level New York Center
Mon 04:27:00 PM 41.3333 -75.7167 217° Southwest  Level FlightAware Approximate
Mon 04:34:00 PM 41.3385 -75.7234 217° Southwest  Level Estimated
Mon 04:35:00 PM 41.3333 -75.7167 217° Southwest  Level FlightAware Approximate
Mon 04:36:00 PM 41.3385 -75.7234 217° Southwest  Level Estimated
Mon 04:37:00 PM 41.3333 -75.7167 217° Southwest  Level FlightAware Approximate
Mon 04:38:00 PM 41.3385 -75.7234 217° Southwest  Level Estimated
Mon 04:39:00 PM 41.3333 -75.7167 217° Southwest  Level FlightAware Approximate
Mon 04:40:00 PM 41.3385 -75.7234 217° Southwest  Level Estimated

Login

Don't have an account? Register now (free) for customized features, flight alerts, and more!